Knoxville, Tennessee
Current Conditions -  °F | °C
As of 12:53 AM on Thursday 29 Jan 2015 (Local Time) from KTYS Reporting Station
Broken Clouds Broken Clouds  
Wind Chill: -2°   Ceiling: 25000
Heat Index: -2°   Visibility: 10mi
Dew Point: -6°   Wind: 3mph
Humidity: 75%   Direction: 250°WSW
Pressure: 30.24"   Gusts: NA
Location:  35.96°N, 83.92°W
Report Text: KTYS 290553Z 25003KT 10SM BKN250 M02/M06 A3024 RMK AO2 SLP248 T10171056 10033 21017 55005
Loading
Personal Weather Stations






























Interactive Weather Map New forecast layout! Learn more

10-Day Weather Forecast

Advertisements
Track Severe Weather on mobile